sensor_id;sensor_type;location;lat;lon;timestamp;pressure;altitude;pressure_sealevel;temperature;humidity
28630;BME280;15817;42.130;24.762;2023-01-27T00:01:09;99197.50;;;1.57;100.00
28630;BME280;15817;42.130;24.762;2023-01-27T00:03:34;99183.38;;;1.51;100.00
28630;BME280;15817;42.130;24.762;2023-01-27T00:06:00;99199.22;;;1.57;100.00
28630;BME280;15817;42.130;24.762;2023-01-27T00:08:32;99203.63;;;1.58;100.00
28630;BME280;15817;42.130;24.762;2023-01-27T00:10:58;99211.44;;;1.56;100.00
28630;BME280;15817;42.130;24.762;2023-01-27T00:13:43;99214.09;;;1.58;100.00
28630;BME280;15817;42.130;24.762;2023-01-27T00:16:09;99207.19;;;1.61;100.00
28630;BME280;15817;42.130;24.762;2023-01-27T00:18:41;99211.59;;;1.65;100.00
28630;BME280;15817;42.130;24.762;2023-01-27T00:21:10;99205.44;;;1.63;100.00
28630;BME280;15817;42.130;24.762;2023-01-27T00:23:57;99195.81;;;1.61;100.00
28630;BME280;15817;42.130;24.762;2023-01-27T00:26:41;99180.91;;;1.58;100.00
28630;BME280;15817;42.130;24.762;2023-01-27T00:29:07;99168.66;;;1.57;100.00
28630;BME280;15817;42.130;24.762;2023-01-27T00:31:36;99166.09;;;1.62;100.00
28630;BME280;15817;42.130;24.762;2023-01-27T00:34:20;99164.38;;;1.61;100.00
28630;BME280;15817;42.130;24.762;2023-01-27T00:36:46;99160.84;;;1.59;100.00
28630;BME280;15817;42.130;24.762;2023-01-27T00:39:14;99173.16;;;1.64;100.00
28630;BME280;15817;42.130;24.762;2023-01-27T00:41:52;99180.13;;;1.64;100.00
28630;BME280;15817;42.130;24.762;2023-01-27T00:44:22;99175.78;;;1.64;100.00
28630;BME280;15817;42.130;24.762;2023-01-27T00:46:48;99170.41;;;1.57;100.00
28630;BME280;15817;42.130;24.762;2023-01-27T00:49:14;99171.34;;;1.62;100.00
28630;BME280;15817;42.130;24.762;2023-01-27T00:51:41;99168.72;;;1.62;100.00
28630;BME280;15817;42.130;24.762;2023-01-27T00:54:07;99186.31;;;1.67;100.00
28630;BME280;15817;42.130;24.762;2023-01-27T00:56:33;99167.00;;;1.62;100.00
28630;BME280;15817;42.130;24.762;2023-01-27T00:58:59;99143.41;;;1.61;100.00
28630;BME280;15817;42.130;24.762;2023-01-27T01:01:26;99148.72;;;1.65;100.00
28630;BME280;15817;42.130;24.762;2023-01-27T01:03:52;99129.41;;;1.60;100.00
28630;BME280;15817;42.130;24.762;2023-01-27T01:06:18;99117.19;;;1.62;100.00
28630;BME280;15817;42.130;24.762;2023-01-27T01:08:47;99105.94;;;1.68;100.00
28630;BME280;15817;42.130;24.762;2023-01-27T01:11:15;99099.91;;;1.72;100.00
28630;BME280;15817;42.130;24.762;2023-01-27T01:13:46;99100.78;;;1.71;100.00
28630;BME280;15817;42.130;24.762;2023-01-27T01:16:22;99095.47;;;1.68;100.00
28630;BME280;15817;42.130;24.762;2023-01-27T01:18:49;99102.34;;;1.63;100.00
28630;BME280;15817;42.130;24.762;2023-01-27T01:21:15;99140.97;;;1.71;100.00
28630;BME280;15817;42.130;24.762;2023-01-27T01:23:43;99178.53;;;1.70;100.00
28630;BME280;15817;42.130;24.762;2023-01-27T01:26:10;99168.72;;;1.62;100.00
28630;BME280;15817;42.130;24.762;2023-01-27T01:28:37;99165.38;;;1.69;100.00
28630;BME280;15817;42.130;24.762;2023-01-27T01:31:09;99185.47;;;1.68;100.00
28630;BME280;15817;42.130;24.762;2023-01-27T01:33:36;99171.44;;;1.66;100.00
28630;BME280;15817;42.130;24.762;2023-01-27T01:36:09;99153.91;;;1.64;100.00
28630;BME280;15817;42.130;24.762;2023-01-27T01:38:35;99153.09;;;1.66;100.00
28630;BME280;15817;42.130;24.762;2023-01-27T01:41:01;99132.91;;;1.62;100.00
28630;BME280;15817;42.130;24.762;2023-01-27T01:43:27;99139.22;;;1.72;100.00
28630;BME280;15817;42.130;24.762;2023-01-27T01:45:58;99136.63;;;1.72;100.00
28630;BME280;15817;42.130;24.762;2023-01-27T01:48:36;99126.88;;;1.66;100.00
28630;BME280;15817;42.130;24.762;2023-01-27T01:51:21;99122.66;;;1.74;100.00
28630;BME280;15817;42.130;24.762;2023-01-27T01:53:59;99107.81;;;1.75;100.00
28630;BME280;15817;42.130;24.762;2023-01-27T01:57:25;99097.31;;;1.75;100.00
28630;BME280;15817;42.130;24.762;2023-01-27T01:59:47;99096.34;;;1.68;100.00
28630;BME280;15817;42.130;24.762;2023-01-27T02:02:17;99108.66;;;1.74;100.00
28630;BME280;15817;42.130;24.762;2023-01-27T02:04:55;99116.53;;;1.74;100.00
28630;BME280;15817;42.130;24.762;2023-01-27T02:07:32;99113.03;;;1.73;100.00
28630;BME280;15817;42.130;24.762;2023-01-27T02:10:00;99109.53;;;1.74;100.00
28630;BME280;15817;42.130;24.762;2023-01-27T02:12:29;99096.44;;;1.74;100.00
28630;BME280;15817;42.130;24.762;2023-01-27T02:14:54;99078.00;;;1.68;100.00
28630;BME280;15817;42.130;24.762;2023-01-27T02:17:20;99084.19;;;1.73;100.00
28630;BME280;15817;42.130;24.762;2023-01-27T02:22:51;99072.03;;;1.77;100.00
28630;BME280;15817;42.130;24.762;2023-01-27T02:28:06;99054.53;;;1.76;100.00
28630;BME280;15817;42.130;24.762;2023-01-27T02:30:33;99048.41;;;1.75;100.00
28630;BME280;15817;42.130;24.762;2023-01-27T02:32:59;99045.81;;;1.77;100.00
28630;BME280;15817;42.130;24.762;2023-01-27T02:38:12;99066.84;;;1.80;100.00
28630;BME280;15817;42.130;24.762;2023-01-27T02:40:39;99064.16;;;1.77;100.00
28630;BME280;15817;42.130;24.762;2023-01-27T02:43:08;99044.03;;;1.74;100.00
28630;BME280;15817;42.130;24.762;2023-01-27T02:45:34;99029.19;;;1.75;100.00
28630;BME280;15817;42.130;24.762;2023-01-27T02:48:01;99055.41;;;1.76;100.00
28630;BME280;15817;42.130;24.762;2023-01-27T02:50:27;99051.91;;;1.76;100.00
28630;BME280;15817;42.130;24.762;2023-01-27T02:52:53;99052.06;;;1.84;100.00
28630;BME280;15817;42.130;24.762;2023-01-27T02:55:20;99046.81;;;1.84;100.00
28630;BME280;15817;42.130;24.762;2023-01-27T02:57:47;99056.34;;;1.80;100.00
28630;BME280;15817;42.130;24.762;2023-01-27T03:00:35;99052.06;;;1.85;100.00
28630;BME280;15817;42.130;24.762;2023-01-27T03:03:01;99048.53;;;1.81;100.00
28630;BME280;15817;42.130;24.762;2023-01-27T03:05:27;99035.41;;;1.81;100.00
28630;BME280;15817;42.130;24.762;2023-01-27T03:07:52;99022.28;;;1.80;100.00
28630;BME280;15817;42.130;24.762;2023-01-27T03:10:18;99018.00;;;1.87;100.00
28630;BME280;15817;42.130;24.762;2023-01-27T03:12:44;99025.84;;;1.85;100.00
28630;BME280;15817;42.130;24.762;2023-01-27T03:15:11;99015.34;;;1.85;100.00
28630;BME280;15817;42.130;24.762;2023-01-27T03:18:03;99016.22;;;1.83;100.00
28630;BME280;15817;42.130;24.762;2023-01-27T03:20:46;99019.72;;;1.83;100.00
28630;BME280;15817;42.130;24.762;2023-01-27T03:23:14;99023.22;;;1.85;100.00
28630;BME280;15817;42.130;24.762;2023-01-27T03:25:45;99048.56;;;1.86;100.00
28630;BME280;15817;42.130;24.762;2023-01-27T03:28:13;99064.28;;;1.83;100.00
28630;BME280;15817;42.130;24.762;2023-01-27T03:30:44;99066.94;;;1.88;100.00
28630;BME280;15817;42.130;24.762;2023-01-27T03:33:17;99049.38;;;1.80;100.00
28630;BME280;15817;42.130;24.762;2023-01-27T03:35:52;99042.41;;;1.81;100.00
28630;BME280;15817;42.130;24.762;2023-01-27T03:38:43;99038.13;;;1.88;100.00
28630;BME280;15817;42.130;24.762;2023-01-27T03:41:28;99031.09;;;1.84;100.00
28630;BME280;15817;42.130;24.762;2023-01-27T03:44:12;99039.78;;;1.81;100.00
28630;BME280;15817;42.130;24.762;2023-01-27T03:46:56;99043.34;;;1.88;100.00
28630;BME280;15817;42.130;24.762;2023-01-27T04:08:25;99001.44;;;1.89;100.00
28630;BME280;15817;42.130;24.762;2023-01-27T04:10:53;98997.03;;;1.87;100.00
28630;BME280;15817;42.130;24.762;2023-01-27T04:13:42;99005.78;;;1.87;100.00
28630;BME280;15817;42.130;24.762;2023-01-27T04:16:10;99014.56;;;1.91;100.00
28630;BME280;15817;42.130;24.762;2023-01-27T04:18:42;99006.69;;;1.89;100.00
28630;BME280;15817;42.130;24.762;2023-01-27T04:21:11;99005.81;;;1.90;100.00
28630;BME280;15817;42.130;24.762;2023-01-27T04:23:39;99018.13;;;1.94;100.00
28630;BME280;15817;42.130;24.762;2023-01-27T04:26:16;99002.28;;;1.87;100.00
28630;BME280;15817;42.130;24.762;2023-01-27T04:28:48;99005.81;;;1.90;100.00
28630;BME280;15817;42.130;24.762;2023-01-27T04:31:17;99000.63;;;1.92;100.00
28630;BME280;15817;42.130;24.762;2023-01-27T04:33:48;99001.53;;;1.97;100.00
28630;BME280;15817;42.130;24.762;2023-01-27T04:36:14;98986.63;;;1.91;100.00
28630;BME280;15817;42.130;24.762;2023-01-27T04:38:42;98979.63;;;1.92;100.00
28630;BME280;15817;42.130;24.762;2023-01-27T04:41:10;98985.78;;;1.94;100.00
28630;BME280;15817;42.130;24.762;2023-01-27T04:43:44;98991.91;;;1.94;100.00
28630;BME280;15817;42.130;24.762;2023-01-27T04:46:10;99000.69;;;1.98;100.00
28630;BME280;15817;42.130;24.762;2023-01-27T04:48:36;98998.94;;;1.98;100.00
28630;BME280;15817;42.130;24.762;2023-01-27T04:51:02;99001.63;;;2.01;100.00
28630;BME280;15817;42.130;24.762;2023-01-27T04:53:28;99001.63;;;2.01;100.00
28630;BME280;15817;42.130;24.762;2023-01-27T04:56:00;99005.94;;;1.99;100.00
28630;BME280;15817;42.130;24.762;2023-01-27T04:58:26;98994.56;;;1.96;100.00
28630;BME280;15817;42.130;24.762;2023-01-27T05:00:52;98988.41;;;1.94;100.00
28630;BME280;15817;42.130;24.762;2023-01-27T05:03:18;98997.22;;;2.00;100.00
28630;BME280;15817;42.130;24.762;2023-01-27T05:05:44;98992.78;;;1.96;100.00
28630;BME280;15817;42.130;24.762;2023-01-27T05:08:10;98994.50;;;1.93;100.00
28630;BME280;15817;42.130;24.762;2023-01-27T05:10:36;99007.66;;;1.97;100.00
28630;BME280;15817;42.130;24.762;2023-01-27T05:13:02;99009.38;;;1.94;100.00
28630;BME280;15817;42.130;24.762;2023-01-27T05:15:31;99019.94;;;2.00;100.00
28630;BME280;15817;42.130;24.762;2023-01-27T05:17:58;99022.53;;;1.95;100.00
28630;BME280;15817;42.130;24.762;2023-01-27T05:20:26;99024.22;;;1.93;100.00
28630;BME280;15817;42.130;24.762;2023-01-27T05:22:52;99038.31;;;2.01;100.00
28630;BME280;15817;42.130;24.762;2023-01-27T05:25:44;99045.31;;;2.01;100.00
28630;BME280;15817;42.130;24.762;2023-01-27T05:28:10;99043.56;;;2.01;100.00
28630;BME280;15817;42.130;24.762;2023-01-27T05:30:36;99024.25;;;1.95;100.00
28630;BME280;15817;42.130;24.762;2023-01-27T05:33:02;99021.66;;;1.98;100.00
28630;BME280;15817;42.130;24.762;2023-01-27T05:35:31;99034.88;;;2.04;100.00
28630;BME280;15817;42.130;24.762;2023-01-27T05:38:01;99024.34;;;2.01;100.00
28630;BME280;15817;42.130;24.762;2023-01-27T05:40:29;99036.50;;;1.97;100.00
28630;BME280;15817;42.130;24.762;2023-01-27T05:42:55;99034.78;;;1.99;100.00
28630;BME280;15817;42.130;24.762;2023-01-27T05:45:20;99039.22;;;2.03;100.00
28630;BME280;15817;42.130;24.762;2023-01-27T05:47:49;99026.94;;;1.99;100.00
28630;BME280;15817;42.130;24.762;2023-01-27T05:50:20;99041.00;;;2.04;100.00
28630;BME280;15817;42.130;24.762;2023-01-27T05:52:46;99033.94;;;2.00;100.00
28630;BME280;15817;42.130;24.762;2023-01-27T05:55:12;99040.13;;;2.04;100.00
28630;BME280;15817;42.130;24.762;2023-01-27T05:57:38;99038.41;;;2.06;100.00
28630;BME280;15817;42.130;24.762;2023-01-27T06:00:04;99030.56;;;2.07;100.00
28630;BME280;15817;42.130;24.762;2023-01-27T06:02:41;99028.75;;;2.03;100.00
28630;BME280;15817;42.130;24.762;2023-01-27T06:05:13;99024.41;;;2.05;100.00
28630;BME280;15817;42.130;24.762;2023-01-27T06:07:39;99030.56;;;2.09;100.00
28630;BME280;15817;42.130;24.762;2023-01-27T06:10:19;99021.75;;;2.04;100.00
28630;BME280;15817;42.130;24.762;2023-01-27T06:13:23;99020.09;;;2.10;100.00
28630;BME280;15817;42.130;24.762;2023-01-27T06:15:52;98999.88;;;2.02;100.00
28630;BME280;15817;42.130;24.762;2023-01-27T06:18:22;99014.81;;;2.09;100.00
28630;BME280;15817;42.130;24.762;2023-01-27T06:20:48;99011.31;;;2.05;100.00
28630;BME280;15817;42.130;24.762;2023-01-27T06:26:02;99029.69;;;2.10;100.00
28630;BME280;15817;42.130;24.762;2023-01-27T06:28:31;99034.94;;;2.07;100.00
28630;BME280;15817;42.130;24.762;2023-01-27T06:31:06;99035.00;;;2.13;100.00
28630;BME280;15817;42.130;24.762;2023-01-27T06:33:32;99036.75;;;2.14;100.00
28630;BME280;15817;42.130;24.762;2023-01-27T06:36:05;99035.06;;;2.16;100.00
28630;BME280;15817;42.130;24.762;2023-01-27T06:38:34;99017.47;;;2.10;100.00
28630;BME280;15817;42.130;24.762;2023-01-27T06:41:16;99031.53;;;2.15;100.00
28630;BME280;15817;42.130;24.762;2023-01-27T06:43:53;99034.16;;;2.15;100.00
28630;BME280;15817;42.130;24.762;2023-01-27T06:46:37;99023.66;;;2.14;100.00
28630;BME280;15817;42.130;24.762;2023-01-27T06:49:03;99027.22;;;2.17;100.00
28630;BME280;15817;42.130;24.762;2023-01-27T06:51:28;99023.72;;;2.18;100.00
28630;BME280;15817;42.130;24.762;2023-01-27T06:53:54;99017.59;;;2.19;100.00
28630;BME280;15817;42.130;24.762;2023-01-27T06:56:20;99018.50;;;2.22;100.00
28630;BME280;15817;42.130;24.762;2023-01-27T06:58:46;99022.91;;;2.24;100.00
28630;BME280;15817;42.130;24.762;2023-01-27T07:01:12;99029.94;;;2.27;100.00
28630;BME280;15817;42.130;24.762;2023-01-27T07:03:43;99013.28;;;2.23;100.00
28630;BME280;15817;42.130;24.762;2023-01-27T07:06:14;99017.66;;;2.24;100.00
28630;BME280;15817;42.130;24.762;2023-01-27T07:09:14;99029.09;;;2.28;100.00
28630;BME280;15817;42.130;24.762;2023-01-27T07:11:47;99029.91;;;2.25;100.00
28630;BME280;15817;42.130;24.762;2023-01-27T07:14:35;99045.81;;;2.36;100.00
28630;BME280;15817;42.130;24.762;2023-01-27T07:17:23;99032.59;;;2.31;100.00
28630;BME280;15817;42.130;24.762;2023-01-27T07:20:14;99031.75;;;2.31;100.00
28630;BME280;15817;42.130;24.762;2023-01-27T07:26:44;99040.59;;;2.37;100.00
28630;BME280;15817;42.130;24.762;2023-01-27T07:29:30;99049.44;;;2.45;100.00
28630;BME280;15817;42.130;24.762;2023-01-27T07:32:16;99034.50;;;2.40;100.00
28630;BME280;15817;42.130;24.762;2023-01-27T07:35:20;99038.03;;;2.45;100.00
28630;BME280;15817;42.130;24.762;2023-01-27T07:38:01;99029.34;;;2.49;100.00
28630;BME280;15817;42.130;24.762;2023-01-27T07:40:43;99031.97;;;2.47;100.00
28630;BME280;15817;42.130;24.762;2023-01-27T07:43:48;99039.03;;;2.54;100.00
28630;BME280;15817;42.130;24.762;2023-01-27T07:46:33;99030.28;;;2.54;100.00
28630;BME280;15817;42.130;24.762;2023-01-27T07:49:08;99032.91;;;2.54;100.00
28630;BME280;15817;42.130;24.762;2023-01-27T07:51:35;99014.50;;;2.49;100.00
28630;BME280;15817;42.130;24.762;2023-01-27T07:54:01;99012.81;;;2.53;100.00
28630;BME280;15817;42.130;24.762;2023-01-27T07:56:29;99011.03;;;2.52;100.00
28630;BME280;15817;42.130;24.762;2023-01-27T07:58:57;99011.06;;;2.53;100.00
28630;BME280;15817;42.130;24.762;2023-01-27T08:01:29;99024.22;;;2.58;100.00
28630;BME280;15817;42.130;24.762;2023-01-27T08:03:55;99030.44;;;2.66;100.00
28630;BME280;15817;42.130;24.762;2023-01-27T08:06:21;99019.06;;;2.64;100.00
28630;BME280;15817;42.130;24.762;2023-01-27T08:08:47;99019.94;;;2.66;100.00
28630;BME280;15817;42.130;24.762;2023-01-27T08:11:15;99020.78;;;2.62;100.00
28630;BME280;15817;42.130;24.762;2023-01-27T08:13:41;99035.69;;;2.68;100.00
28630;BME280;15817;42.130;24.762;2023-01-27T08:19:38;99019.09;;;2.69;100.00
28630;BME280;15817;42.130;24.762;2023-01-27T08:22:04;99016.47;;;2.69;100.00
28630;BME280;15817;42.130;24.762;2023-01-27T08:24:30;99008.63;;;2.72;100.00
28630;BME280;15817;42.130;24.762;2023-01-27T08:26:56;98992.94;;;2.76;100.00
28630;BME280;15817;42.130;24.762;2023-01-27T08:29:22;98984.25;;;2.82;100.00
28630;BME280;15817;42.130;24.762;2023-01-27T08:31:48;98988.69;;;2.89;100.00
28630;BME280;15817;42.130;24.762;2023-01-27T08:34:14;98976.47;;;2.92;100.00
28630;BME280;15817;42.130;24.762;2023-01-27T08:36:41;98978.25;;;2.95;100.00
28630;BME280;15817;42.130;24.762;2023-01-27T08:39:08;98984.41;;;2.97;100.00
28630;BME280;15817;42.130;24.762;2023-01-27T08:41:34;98963.31;;;2.89;100.00
28630;BME280;15817;42.130;24.762;2023-01-27T08:44:00;98972.97;;;2.94;100.00
28630;BME280;15817;42.130;24.762;2023-01-27T08:46:29;98971.22;;;2.92;100.00
28630;BME280;15817;42.130;24.762;2023-01-27T08:48:55;98987.06;;;3.02;100.00
28630;BME280;15817;42.130;24.762;2023-01-27T08:51:26;98991.44;;;3.00;100.00
28630;BME280;15817;42.130;24.762;2023-01-27T08:53:57;98992.31;;;3.02;100.00
28630;BME280;15817;42.130;24.762;2023-01-27T08:56:23;99001.06;;;2.99;100.00
28630;BME280;15817;42.130;24.762;2023-01-27T08:58:49;98997.47;;;2.92;100.00
28630;BME280;15817;42.130;24.762;2023-01-27T09:01:17;98999.25;;;2.94;100.00
28630;BME280;15817;42.130;24.762;2023-01-27T09:03:44;99002.78;;;2.97;100.00
28630;BME280;15817;42.130;24.762;2023-01-27T09:06:12;99002.81;;;3.02;100.00
28630;BME280;15817;42.130;24.762;2023-01-27T09:08:39;98994.06;;;3.00;100.00
28630;BME280;15817;42.130;24.762;2023-01-27T09:11:14;98997.59;;;3.05;100.00
28630;BME280;15817;42.130;24.762;2023-01-27T09:13:41;98987.91;;;2.96;100.00
28630;BME280;15817;42.130;24.762;2023-01-27T09:16:07;99002.00;;;3.06;100.00
28630;BME280;15817;42.130;24.762;2023-01-27T09:18:34;99001.09;;;3.04;100.00
28630;BME280;15817;42.130;24.762;2023-01-27T09:24:16;98967.78;;;3.01;100.00
28630;BME280;15817;42.130;24.762;2023-01-27T09:26:43;98978.41;;;3.10;100.00
28630;BME280;15817;42.130;24.762;2023-01-27T09:29:10;98953.81;;;3.04;100.00
28630;BME280;15817;42.130;24.762;2023-01-27T09:31:36;98957.34;;;3.06;100.00
28630;BME280;15817;42.130;24.762;2023-01-27T09:34:09;98944.22;;;3.07;100.00
28630;BME280;15817;42.130;24.762;2023-01-27T09:36:40;98948.63;;;3.08;100.00
28630;BME280;15817;42.130;24.762;2023-01-27T09:56:24;98925.91;;;3.15;100.00
28630;BME280;15817;42.130;24.762;2023-01-27T10:16:04;98924.31;;;3.37;100.00
28630;BME280;15817;42.130;24.762;2023-01-27T10:27:15;98905.03;;;3.35;100.00
28630;BME280;15817;42.130;24.762;2023-01-27T10:29:48;98900.72;;;3.41;100.00
28630;BME280;15817;42.130;24.762;2023-01-27T10:32:29;98905.09;;;3.41;100.00
28630;BME280;15817;42.130;24.762;2023-01-27T10:35:18;98891.97;;;3.42;100.00
28630;BME280;15817;42.130;24.762;2023-01-27T10:37:57;98892.84;;;3.44;100.00
28630;BME280;15817;42.130;24.762;2023-01-27T10:43:29;98895.53;;;3.52;100.00
28630;BME280;15817;42.130;24.762;2023-01-27T10:49:13;98879.78;;;3.55;100.00
28630;BME280;15817;42.130;24.762;2023-01-27T10:52:06;98862.19;;;3.48;100.00
28630;BME280;15817;42.130;24.762;2023-01-27T10:58:00;98874.56;;;3.62;100.00
28630;BME280;15817;42.130;24.762;2023-01-27T11:00:53;98867.56;;;3.64;100.00
28630;BME280;15817;42.130;24.762;2023-01-27T11:07:05;98856.22;;;3.76;100.00
28630;BME280;15817;42.130;24.762;2023-01-27T11:10:52;98841.31;;;3.77;100.00
28630;BME280;15817;42.130;24.762;2023-01-27T11:13:45;98844.00;;;3.93;100.00
28630;BME280;15817;42.130;24.762;2023-01-27T11:16:25;98825.59;;;3.95;100.00
28630;BME280;15817;42.130;24.762;2023-01-27T11:20:03;98849.34;;;4.16;100.00
28630;BME280;15817;42.130;24.762;2023-01-27T11:26:55;98830.09;;;4.25;100.00
28630;BME280;15817;42.130;24.762;2023-01-27T11:30:14;98830.09;;;4.25;100.00
28630;BME280;15817;42.130;24.762;2023-01-27T11:47:43;98853.78;;;4.23;100.00
28630;BME280;15817;42.130;24.762;2023-01-27T11:57:54;98826.56;;;4.15;100.00
28630;BME280;15817;42.130;24.762;2023-01-27T12:00:45;98832.72;;;4.20;100.00
28630;BME280;15817;42.130;24.762;2023-01-27T12:06:58;98824.81;;;4.20;100.00
28630;BME280;15817;42.130;24.762;2023-01-27T12:09:42;98830.09;;;4.22;100.00
28630;BME280;15817;42.130;24.762;2023-01-27T12:12:43;98826.59;;;4.23;100.00
28630;BME280;15817;42.130;24.762;2023-01-27T12:15:25;98825.72;;;4.31;100.00
28630;BME280;15817;42.130;24.762;2023-01-27T12:18:24;98826.63;;;4.36;100.00
28630;BME280;15817;42.130;24.762;2023-01-27T12:21:03;98805.53;;;4.30;100.00
28630;BME280;15817;42.130;24.762;2023-01-27T12:23:49;98825.72;;;4.42;100.00
28630;BME280;15817;42.130;24.762;2023-01-27T12:26:38;98801.16;;;4.34;100.00
28630;BME280;15817;42.130;24.762;2023-01-27T12:29:19;98800.31;;;4.44;100.00
28630;BME280;15817;42.130;24.762;2023-01-27T12:31:54;98789.78;;;4.44;100.00
28630;BME280;15817;42.130;24.762;2023-01-27T12:34:32;98805.56;;;4.62;100.00
28630;BME280;15817;42.130;24.762;2023-01-27T12:37:03;98794.19;;;4.59;100.00
28630;BME280;15817;42.130;24.762;2023-01-27T12:43:02;98796.78;;;4.76;100.00
28630;BME280;15817;42.130;24.762;2023-01-27T12:45:34;98792.41;;;4.79;100.00
28630;BME280;15817;42.130;24.762;2023-01-27T12:50:52;98805.56;;;4.85;100.00
28630;BME280;15817;42.130;24.762;2023-01-27T12:53:23;98801.19;;;4.86;100.00
28630;BME280;15817;42.130;24.762;2023-01-27T12:56:03;98802.97;;;4.81;100.00
28630;BME280;15817;42.130;24.762;2023-01-27T12:58:56;98806.47;;;4.83;100.00
28630;BME280;15817;42.130;24.762;2023-01-27T13:04:14;98809.09;;;4.78;100.00
28630;BME280;15817;42.130;24.762;2023-01-27T13:10:14;98802.06;;;4.74;100.00
28630;BME280;15817;42.130;24.762;2023-01-27T13:12:53;98806.47;;;4.80;100.00
28630;BME280;15817;42.130;24.762;2023-01-27T13:15:24;98790.66;;;4.75;100.00
28630;BME280;15817;42.130;24.762;2023-01-27T13:18:12;98797.69;;;4.78;100.00
28630;BME280;15817;42.130;24.762;2023-01-27T13:20:55;98788.91;;;4.77;100.00
28630;BME280;15817;42.130;24.762;2023-01-27T13:23:47;98782.75;;;4.81;100.00
28630;BME280;15817;42.130;24.762;2023-01-27T13:26:39;98795.03;;;4.87;100.00
28630;BME280;15817;42.130;24.762;2023-01-27T13:34:29;98793.28;;;4.80;100.00
28630;BME280;15817;42.130;24.762;2023-01-27T13:40:16;98795.91;;;4.86;100.00
28630;BME280;15817;42.130;24.762;2023-01-27T13:46:14;98791.53;;;4.88;100.00
28630;BME280;15817;42.130;24.762;2023-01-27T13:48:58;98781.00;;;4.82;100.00
28630;BME280;15817;42.130;24.762;2023-01-27T13:51:30;98788.03;;;4.80;100.00
28630;BME280;15817;42.130;24.762;2023-01-27T13:54:02;98790.66;;;4.80;100.00
28630;BME280;15817;42.130;24.762;2023-01-27T14:03:19;98822.25;;;4.86;100.00
28630;BME280;15817;42.130;24.762;2023-01-27T14:06:08;98826.66;;;4.87;100.00
28630;BME280;15817;42.130;24.762;2023-01-27T14:11:45;98821.38;;;4.85;100.00
28630;BME280;15817;42.130;24.762;2023-01-27T14:22:32;98823.13;;;4.86;100.00
28630;BME280;15817;42.130;24.762;2023-01-27T14:34:39;98826.66;;;4.96;100.00
28630;BME280;15817;42.130;24.762;2023-01-27T14:40:04;98820.53;;;4.95;100.00
28630;BME280;15817;42.130;24.762;2023-01-27T14:58:02;98848.59;;;4.99;100.00
28630;BME280;15817;42.130;24.762;2023-01-27T15:01:04;98836.31;;;4.98;100.00
28630;BME280;15817;42.130;24.762;2023-01-27T15:04:13;98830.16;;;4.96;100.00
28630;BME280;15817;42.130;24.762;2023-01-27T15:23:12;98849.50;;;4.95;100.00
28630;BME280;15817;42.130;24.762;2023-01-27T15:25:55;98845.97;;;4.93;100.00
28630;BME280;15817;42.130;24.762;2023-01-27T15:28:28;98846.88;;;4.95;100.00
28630;BME280;15817;42.130;24.762;2023-01-27T15:33:50;98834.56;;;4.90;100.00
28630;BME280;15817;42.130;24.762;2023-01-27T15:37:00;98838.06;;;4.92;100.00
28630;BME280;15817;42.130;24.762;2023-01-27T15:39:37;98836.31;;;4.89;100.00
28630;BME280;15817;42.130;24.762;2023-01-27T15:42:48;98835.44;;;4.90;100.00
28630;BME280;15817;42.130;24.762;2023-01-27T15:50:45;98842.44;;;4.99;100.00
28630;BME280;15817;42.130;24.762;2023-01-27T15:53:31;98839.84;;;4.91;100.00
28630;BME280;15817;42.130;24.762;2023-01-27T15:56:40;98851.25;;;4.99;100.00
28630;BME280;15817;42.130;24.762;2023-01-27T15:59:16;98844.22;;;4.91;100.00
28630;BME280;15817;42.130;24.762;2023-01-27T16:01:48;98838.94;;;4.91;100.00
28630;BME280;15817;42.130;24.762;2023-01-27T16:04:34;98845.09;;;4.93;100.00
28630;BME280;15817;42.130;24.762;2023-01-27T16:07:30;98858.28;;;4.96;100.00
28630;BME280;15817;42.130;24.762;2023-01-27T16:10:41;98855.63;;;4.93;100.00
28630;BME280;15817;42.130;24.762;2023-01-27T16:13:28;98857.41;;;4.95;100.00
28630;BME280;15817;42.130;24.762;2023-01-27T16:21:54;98861.78;;;4.93;100.00
28630;BME280;15817;42.130;24.762;2023-01-27T16:27:50;98874.06;;;5.00;100.00
28630;BME280;15817;42.130;24.762;2023-01-27T16:30:24;98865.31;;;4.92;100.00
28630;BME280;15817;42.130;24.762;2023-01-27T16:35:58;98878.47;;;5.03;100.00
28630;BME280;15817;42.130;24.762;2023-01-27T16:38:31;98872.31;;;4.98;100.00
28630;BME280;15817;42.130;24.762;2023-01-27T16:41:20;98879.34;;;5.05;100.00
28630;BME280;15817;42.130;24.762;2023-01-27T16:44:00;98875.84;;;5.01;100.00
28630;BME280;15817;42.130;24.762;2023-01-27T16:46:47;98878.47;;;5.03;100.00
28630;BME280;15817;42.130;24.762;2023-01-27T16:49:30;98881.97;;;5.00;100.00
28630;BME280;15817;42.130;24.762;2023-01-27T16:52:04;98874.09;;;4.94;100.00
28630;BME280;15817;42.130;24.762;2023-01-27T17:01:45;98879.34;;;4.94;100.00
28630;BME280;15817;42.130;24.762;2023-01-27T17:05:02;98875.84;;;4.92;100.00
28630;BME280;15817;42.130;24.762;2023-01-27T17:07:49;98889.00;;;4.98;100.00
28630;BME280;15817;42.130;24.762;2023-01-27T17:10:20;98882.00;;;4.96;100.00
28630;BME280;15817;42.130;24.762;2023-01-27T17:12:49;98878.47;;;4.92;100.00
28630;BME280;15817;42.130;24.762;2023-01-27T17:15:30;98890.78;;;4.93;100.00
28630;BME280;15817;42.130;24.762;2023-01-27T17:18:17;98896.94;;;4.95;100.00
28630;BME280;15817;42.130;24.762;2023-01-27T17:20:45;98896.03;;;4.95;100.00
28630;BME280;15817;42.130;24.762;2023-01-27T17:23:36;98894.28;;;4.94;100.00
28630;BME280;15817;42.130;24.762;2023-01-27T17:26:14;98894.25;;;4.89;100.00
28630;BME280;15817;42.130;24.762;2023-01-27T17:28:43;98903.06;;;4.94;100.00
28630;BME280;15817;42.130;24.762;2023-01-27T17:31:17;98898.66;;;4.89;100.00